sensor_id;sensor_type;location;lat;lon;timestamp;temperature;humidity
7784;DHT22;19359;51.402;6.778;2023-12-20T00:02:02;7.60;99.90
7784;DHT22;19359;51.402;6.778;2023-12-20T00:04:29;7.50;99.90
7784;DHT22;19359;51.402;6.778;2023-12-20T00:06:56;7.50;99.90
7784;DHT22;19359;51.402;6.778;2023-12-20T00:09:22;11.00;99.90
7784;DHT22;19359;51.402;6.778;2023-12-20T00:11:49;7.50;99.90
7784;DHT22;19359;51.402;6.778;2023-12-20T00:14:17;7.90;99.90
7784;DHT22;19359;51.402;6.778;2023-12-20T00:16:44;7.40;99.90
7784;DHT22;19359;51.402;6.778;2023-12-20T00:19:11;7.40;99.90
7784;DHT22;19359;51.402;6.778;2023-12-20T00:24:05;7.30;99.90
7784;DHT22;19359;51.402;6.778;2023-12-20T00:26:32;7.20;99.90
7784;DHT22;19359;51.402;6.778;2023-12-20T00:28:59;7.10;99.90
7784;DHT22;19359;51.402;6.778;2023-12-20T00:31:27;7.10;99.90
7784;DHT22;19359;51.402;6.778;2023-12-20T00:33:54;7.10;99.90
7784;DHT22;19359;51.402;6.778;2023-12-20T00:36:21;7.00;99.90
7784;DHT22;19359;51.402;6.778;2023-12-20T00:38:48;7.10;99.90
7784;DHT22;19359;51.402;6.778;2023-12-20T00:41:16;7.10;99.90
7784;DHT22;19359;51.402;6.778;2023-12-20T00:43:46;7.10;99.90
7784;DHT22;19359;51.402;6.778;2023-12-20T00:48:41;7.00;99.90
7784;DHT22;19359;51.402;6.778;2023-12-20T00:51:11;7.00;99.90
7784;DHT22;19359;51.402;6.778;2023-12-20T00:53:38;6.90;99.90
7784;DHT22;19359;51.402;6.778;2023-12-20T00:56:05;7.10;99.90
7784;DHT22;19359;51.402;6.778;2023-12-20T00:58:31;7.10;99.90
7784;DHT22;19359;51.402;6.778;2023-12-20T01:00:58;7.10;99.90
7784;DHT22;19359;51.402;6.778;2023-12-20T01:05:53;7.00;99.90
7784;DHT22;19359;51.402;6.778;2023-12-20T01:08:20;7.10;99.90
7784;DHT22;19359;51.402;6.778;2023-12-20T01:13:15;7.20;99.90
7784;DHT22;19359;51.402;6.778;2023-12-20T01:15:42;7.10;99.90
7784;DHT22;19359;51.402;6.778;2023-12-20T01:20:35;7.10;99.90
7784;DHT22;19359;51.402;6.778;2023-12-20T01:23:04;7.10;99.90
7784;DHT22;19359;51.402;6.778;2023-12-20T01:25:30;7.10;99.90
7784;DHT22;19359;51.402;6.778;2023-12-20T01:27:57;7.10;99.90
7784;DHT22;19359;51.402;6.778;2023-12-20T01:30:24;7.50;99.90
7784;DHT22;19359;51.402;6.778;2023-12-20T01:32:53;7.90;99.90
7784;DHT22;19359;51.402;6.778;2023-12-20T01:35:20;7.10;99.90
7784;DHT22;19359;51.402;6.778;2023-12-20T01:40:15;7.10;99.90
7784;DHT22;19359;51.402;6.778;2023-12-20T01:42:42;7.10;99.90
7784;DHT22;19359;51.402;6.778;2023-12-20T01:45:09;8.80;99.90
7784;DHT22;19359;51.402;6.778;2023-12-20T01:47:36;7.00;99.90
7784;DHT22;19359;51.402;6.778;2023-12-20T01:50:05;6.90;86.10
7784;DHT22;19359;51.402;6.778;2023-12-20T01:52:34;7.00;99.90
7784;DHT22;19359;51.402;6.778;2023-12-20T01:55:01;7.20;92.20
7784;DHT22;19359;51.402;6.778;2023-12-20T01:57:35;6.70;92.20
7784;DHT22;19359;51.402;6.778;2023-12-20T02:00:03;6.60;92.90
7784;DHT22;19359;51.402;6.778;2023-12-20T02:02:33;6.60;99.90
7784;DHT22;19359;51.402;6.778;2023-12-20T02:05:00;6.50;99.90
7784;DHT22;19359;51.402;6.778;2023-12-20T02:07:28;6.40;99.90
7784;DHT22;19359;51.402;6.778;2023-12-20T02:09:57;6.50;99.90
7784;DHT22;19359;51.402;6.778;2023-12-20T02:12:24;6.50;99.90
7784;DHT22;19359;51.402;6.778;2023-12-20T02:14:52;6.50;99.90
7784;DHT22;19359;51.402;6.778;2023-12-20T02:17:19;6.40;99.90
7784;DHT22;19359;51.402;6.778;2023-12-20T02:19:46;6.40;99.90
7784;DHT22;19359;51.402;6.778;2023-12-20T02:22:15;6.30;99.90
7784;DHT22;19359;51.402;6.778;2023-12-20T02:24:41;6.30;99.90
7784;DHT22;19359;51.402;6.778;2023-12-20T02:27:08;6.30;99.90
7784;DHT22;19359;51.402;6.778;2023-12-20T02:29:35;6.30;99.90
7784;DHT22;19359;51.402;6.778;2023-12-20T02:32:03;6.60;99.90
7784;DHT22;19359;51.402;6.778;2023-12-20T02:34:30;6.30;99.90
7784;DHT22;19359;51.402;6.778;2023-12-20T02:36:56;6.30;99.90
7784;DHT22;19359;51.402;6.778;2023-12-20T02:39:25;7.50;99.90
7784;DHT22;19359;51.402;6.778;2023-12-20T02:41:51;6.20;99.90
7784;DHT22;19359;51.402;6.778;2023-12-20T02:44:18;6.20;99.90
7784;DHT22;19359;51.402;6.778;2023-12-20T02:46:45;6.20;99.90
7784;DHT22;19359;51.402;6.778;2023-12-20T02:49:12;6.20;99.90
7784;DHT22;19359;51.402;6.778;2023-12-20T02:51:39;6.50;99.90
7784;DHT22;19359;51.402;6.778;2023-12-20T02:54:06;6.10;99.90
7784;DHT22;19359;51.402;6.778;2023-12-20T02:56:34;6.10;99.90
7784;DHT22;19359;51.402;6.778;2023-12-20T02:59:01;6.10;99.90
7784;DHT22;19359;51.402;6.778;2023-12-20T03:01:30;6.10;99.90
7784;DHT22;19359;51.402;6.778;2023-12-20T03:03:57;6.10;99.90
7784;DHT22;19359;51.402;6.778;2023-12-20T03:06:24;6.10;99.90
7784;DHT22;19359;51.402;6.778;2023-12-20T03:08:51;6.40;99.90
7784;DHT22;19359;51.402;6.778;2023-12-20T03:11:18;6.00;99.90
7784;DHT22;19359;51.402;6.778;2023-12-20T03:13:46;6.00;99.90
7784;DHT22;19359;51.402;6.778;2023-12-20T03:16:13;6.00;99.90
7784;DHT22;19359;51.402;6.778;2023-12-20T03:18:42;6.00;99.90
7784;DHT22;19359;51.402;6.778;2023-12-20T03:21:09;6.00;99.90
7784;DHT22;19359;51.402;6.778;2023-12-20T03:23:36;6.00;99.90
7784;DHT22;19359;51.402;6.778;2023-12-20T03:26:03;5.90;99.90
7784;DHT22;19359;51.402;6.778;2023-12-20T03:28:30;6.00;99.90
7784;DHT22;19359;51.402;6.778;2023-12-20T03:30:58;6.10;99.90
7784;DHT22;19359;51.402;6.778;2023-12-20T03:33:25;6.10;99.90
7784;DHT22;19359;51.402;6.778;2023-12-20T03:35:51;6.10;99.90
7784;DHT22;19359;51.402;6.778;2023-12-20T03:40:45;5.90;99.90
7784;DHT22;19359;51.402;6.778;2023-12-20T03:43:12;6.10;99.90
7784;DHT22;19359;51.402;6.778;2023-12-20T03:45:39;6.10;99.90
7784;DHT22;19359;51.402;6.778;2023-12-20T03:48:07;6.10;86.20
7784;DHT22;19359;51.402;6.778;2023-12-20T03:50:34;6.00;99.00
7784;DHT22;19359;51.402;6.778;2023-12-20T03:55:29;6.10;96.50
7784;DHT22;19359;51.402;6.778;2023-12-20T03:57:56;6.00;99.90
7784;DHT22;19359;51.402;6.778;2023-12-20T04:00:22;6.00;99.90
7784;DHT22;19359;51.402;6.778;2023-12-20T04:02:49;5.90;99.90
7784;DHT22;19359;51.402;6.778;2023-12-20T04:05:18;6.00;97.70
7784;DHT22;19359;51.402;6.778;2023-12-20T04:07:45;5.90;93.90
7784;DHT22;19359;51.402;6.778;2023-12-20T04:10:12;5.90;91.10
7784;DHT22;19359;51.402;6.778;2023-12-20T04:12:39;5.80;97.90
7784;DHT22;19359;51.402;6.778;2023-12-20T04:15:06;5.90;99.90
7784;DHT22;19359;51.402;6.778;2023-12-20T04:17:34;5.90;99.90
7784;DHT22;19359;51.402;6.778;2023-12-20T04:20:01;5.80;99.90
7784;DHT22;19359;51.402;6.778;2023-12-20T04:22:30;5.80;99.90
7784;DHT22;19359;51.402;6.778;2023-12-20T04:24:57;5.80;99.90
7784;DHT22;19359;51.402;6.778;2023-12-20T04:29:50;5.70;99.90
7784;DHT22;19359;51.402;6.778;2023-12-20T04:32:17;5.70;99.90
7784;DHT22;19359;51.402;6.778;2023-12-20T04:34:44;5.70;99.90
7784;DHT22;19359;51.402;6.778;2023-12-20T04:37:11;5.80;99.90
7784;DHT22;19359;51.402;6.778;2023-12-20T04:39:39;5.80;99.90
7784;DHT22;19359;51.402;6.778;2023-12-20T04:42:07;5.90;99.90
7784;DHT22;19359;51.402;6.778;2023-12-20T04:44:34;5.80;99.90
7784;DHT22;19359;51.402;6.778;2023-12-20T04:49:28;5.90;95.40
7784;DHT22;19359;51.402;6.778;2023-12-20T04:51:58;5.90;60.70
7784;DHT22;19359;51.402;6.778;2023-12-20T04:54:25;5.90;49.30
7784;DHT22;19359;51.402;6.778;2023-12-20T04:56:53;5.90;59.10
7784;DHT22;19359;51.402;6.778;2023-12-20T04:59:20;5.80;31.70
7784;DHT22;19359;51.402;6.778;2023-12-20T05:01:47;5.80;23.20
7784;DHT22;19359;51.402;6.778;2023-12-20T05:04:17;5.80;38.10
7784;DHT22;19359;51.402;6.778;2023-12-20T05:06:44;5.80;39.60
7784;DHT22;19359;51.402;6.778;2023-12-20T05:09:11;5.80;37.40
7784;DHT22;19359;51.402;6.778;2023-12-20T05:11:38;5.70;38.60
7784;DHT22;19359;51.402;6.778;2023-12-20T05:14:06;5.50;95.10
7784;DHT22;19359;51.402;6.778;2023-12-20T05:16:33;5.70;77.20
7784;DHT22;19359;51.402;6.778;2023-12-20T05:19:00;5.70;97.80
7784;DHT22;19359;51.402;6.778;2023-12-20T05:21:32;5.70;99.90
7784;DHT22;19359;51.402;6.778;2023-12-20T05:23:59;5.70;99.90
7784;DHT22;19359;51.402;6.778;2023-12-20T05:26:26;5.70;99.90
7784;DHT22;19359;51.402;6.778;2023-12-20T05:28:52;5.80;99.90
7784;DHT22;19359;51.402;6.778;2023-12-20T05:31:21;5.90;99.90
7784;DHT22;19359;51.402;6.778;2023-12-20T05:33:48;5.90;70.10
7784;DHT22;19359;51.402;6.778;2023-12-20T05:36:15;5.90;45.70
7784;DHT22;19359;51.402;6.778;2023-12-20T05:38:42;5.90;27.20
7784;DHT22;19359;51.402;6.778;2023-12-20T05:41:09;5.90;68.00
7784;DHT22;19359;51.402;6.778;2023-12-20T05:43:36;6.40;40.40
7784;DHT22;19359;51.402;6.778;2023-12-20T05:46:02;5.90;44.20
7784;DHT22;19359;51.402;6.778;2023-12-20T05:48:31;6.00;41.40
7784;DHT22;19359;51.402;6.778;2023-12-20T05:50:58;6.00;1.00
7784;DHT22;19359;51.402;6.778;2023-12-20T05:53:24;6.00;1.00
7784;DHT22;19359;51.402;6.778;2023-12-20T05:55:53;6.00;1.00
7784;DHT22;19359;51.402;6.778;2023-12-20T05:58:20;6.00;1.00
7784;DHT22;19359;51.402;6.778;2023-12-20T06:00:47;6.00;1.00
7784;DHT22;19359;51.402;6.778;2023-12-20T06:03:16;6.00;1.00
7784;DHT22;19359;51.402;6.778;2023-12-20T06:05:44;6.00;14.00
7784;DHT22;19359;51.402;6.778;2023-12-20T06:08:11;6.00;47.50
7784;DHT22;19359;51.402;6.778;2023-12-20T06:10:43;6.00;21.40
7784;DHT22;19359;51.402;6.778;2023-12-20T06:13:10;6.00;14.20
7784;DHT22;19359;51.402;6.778;2023-12-20T06:15:38;5.90;21.30
7784;DHT22;19359;51.402;6.778;2023-12-20T06:20:33;5.60;1.00
7784;DHT22;19359;51.402;6.778;2023-12-20T06:23:01;6.10;1.00
7784;DHT22;19359;51.402;6.778;2023-12-20T06:25:27;6.00;6.70
7784;DHT22;19359;51.402;6.778;2023-12-20T06:27:55;6.00;1.30
7784;DHT22;19359;51.402;6.778;2023-12-20T06:32:50;6.10;1.00
7784;DHT22;19359;51.402;6.778;2023-12-20T06:35:18;6.10;1.00
7784;DHT22;19359;51.402;6.778;2023-12-20T06:37:45;6.20;1.00
7784;DHT22;19359;51.402;6.778;2023-12-20T06:40:13;6.20;1.00
7784;DHT22;19359;51.402;6.778;2023-12-20T06:42:40;8.20;1.00
7784;DHT22;19359;51.402;6.778;2023-12-20T06:45:07;6.20;1.00
7784;DHT22;19359;51.402;6.778;2023-12-20T06:47:34;6.30;1.00
7784;DHT22;19359;51.402;6.778;2023-12-20T06:50:01;6.30;1.00
7784;DHT22;19359;51.402;6.778;2023-12-20T06:52:28;6.30;1.00
7784;DHT22;19359;51.402;6.778;2023-12-20T06:54:54;6.30;1.00
7784;DHT22;19359;51.402;6.778;2023-12-20T06:57:23;6.30;1.00
7784;DHT22;19359;51.402;6.778;2023-12-20T06:59:51;6.30;1.00
7784;DHT22;19359;51.402;6.778;2023-12-20T07:02:18;6.30;1.00
7784;DHT22;19359;51.402;6.778;2023-12-20T07:04:45;6.40;1.00
7784;DHT22;19359;51.402;6.778;2023-12-20T07:07:12;6.40;1.00
7784;DHT22;19359;51.402;6.778;2023-12-20T07:09:39;6.40;1.00
7784;DHT22;19359;51.402;6.778;2023-12-20T07:12:08;6.40;1.00
7784;DHT22;19359;51.402;6.778;2023-12-20T07:14:36;6.40;1.00
7784;DHT22;19359;51.402;6.778;2023-12-20T07:17:03;6.40;1.00
7784;DHT22;19359;51.402;6.778;2023-12-20T07:19:30;6.40;1.00
7784;DHT22;19359;51.402;6.778;2023-12-20T07:21:57;6.40;1.00
7784;DHT22;19359;51.402;6.778;2023-12-20T07:24:24;6.40;1.00
7784;DHT22;19359;51.402;6.778;2023-12-20T07:26:51;6.50;1.00
7784;DHT22;19359;51.402;6.778;2023-12-20T07:29:18;6.50;1.00
7784;DHT22;19359;51.402;6.778;2023-12-20T07:31:46;6.50;1.00
7784;DHT22;19359;51.402;6.778;2023-12-20T07:34:12;7.00;1.00
7784;DHT22;19359;51.402;6.778;2023-12-20T07:36:39;6.60;1.00
7784;DHT22;19359;51.402;6.778;2023-12-20T07:39:06;6.60;1.00
7784;DHT22;19359;51.402;6.778;2023-12-20T07:41:33;6.60;99.90
7784;DHT22;19359;51.402;6.778;2023-12-20T07:44:00;6.60;99.90
7784;DHT22;19359;51.402;6.778;2023-12-20T07:46:27;6.60;99.90
7784;DHT22;19359;51.402;6.778;2023-12-20T07:48:55;6.60;24.80
7784;DHT22;19359;51.402;6.778;2023-12-20T07:51:22;6.60;1.00
7784;DHT22;19359;51.402;6.778;2023-12-20T07:53:48;6.50;1.00
7784;DHT22;19359;51.402;6.778;2023-12-20T07:56:16;6.80;1.00
7784;DHT22;19359;51.402;6.778;2023-12-20T07:58:43;6.70;1.00
7784;DHT22;19359;51.402;6.778;2023-12-20T08:01:10;6.80;1.00
7784;DHT22;19359;51.402;6.778;2023-12-20T08:03:38;6.70;99.90
7784;DHT22;19359;51.402;6.778;2023-12-20T08:06:06;6.70;1.00
7784;DHT22;19359;51.402;6.778;2023-12-20T08:11:00;6.80;1.00
7784;DHT22;19359;51.402;6.778;2023-12-20T08:13:27;6.80;99.90
7784;DHT22;19359;51.402;6.778;2023-12-20T08:15:55;6.70;1.00
7784;DHT22;19359;51.402;6.778;2023-12-20T08:20:49;7.30;1.00
7784;DHT22;19359;51.402;6.778;2023-12-20T08:23:19;6.70;1.00
7784;DHT22;19359;51.402;6.778;2023-12-20T08:25:47;6.70;1.00
7784;DHT22;19359;51.402;6.778;2023-12-20T08:28:14;6.80;1.00
7784;DHT22;19359;51.402;6.778;2023-12-20T08:30:40;6.70;1.00
7784;DHT22;19359;51.402;6.778;2023-12-20T08:33:07;6.70;1.00
7784;DHT22;19359;51.402;6.778;2023-12-20T08:35:36;6.70;1.00
7784;DHT22;19359;51.402;6.778;2023-12-20T08:38:04;7.00;1.00
7784;DHT22;19359;51.402;6.778;2023-12-20T08:40:32;6.70;1.00
7784;DHT22;19359;51.402;6.778;2023-12-20T08:42:59;6.70;1.00
7784;DHT22;19359;51.402;6.778;2023-12-20T08:45:25;6.80;1.00
7784;DHT22;19359;51.402;6.778;2023-12-20T08:47:52;6.70;1.00
7784;DHT22;19359;51.402;6.778;2023-12-20T08:50:19;6.70;99.90
7784;DHT22;19359;51.402;6.778;2023-12-20T08:55:14;6.70;99.90
7784;DHT22;19359;51.402;6.778;2023-12-20T08:57:43;6.80;99.90
7784;DHT22;19359;51.402;6.778;2023-12-20T09:00:11;6.80;1.00
7784;DHT22;19359;51.402;6.778;2023-12-20T09:02:38;6.80;1.00
7784;DHT22;19359;51.402;6.778;2023-12-20T09:05:06;6.80;1.00
7784;DHT22;19359;51.402;6.778;2023-12-20T09:07:32;6.80;99.90
7784;DHT22;19359;51.402;6.778;2023-12-20T09:09:59;6.90;99.90
7784;DHT22;19359;51.402;6.778;2023-12-20T09:12:26;6.90;99.90
7784;DHT22;19359;51.402;6.778;2023-12-20T09:14:55;7.10;99.90
7784;DHT22;19359;51.402;6.778;2023-12-20T09:17:21;6.80;1.00
7784;DHT22;19359;51.402;6.778;2023-12-20T09:19:49;6.90;1.00
7784;DHT22;19359;51.402;6.778;2023-12-20T09:22:18;6.90;1.00
7784;DHT22;19359;51.402;6.778;2023-12-20T09:24:44;6.80;1.00
7784;DHT22;19359;51.402;6.778;2023-12-20T09:27:11;6.80;1.00
7784;DHT22;19359;51.402;6.778;2023-12-20T09:29:38;6.80;1.00
7784;DHT22;19359;51.402;6.778;2023-12-20T09:34:34;6.90;1.00
7784;DHT22;19359;51.402;6.778;2023-12-20T09:37:03;6.70;1.00
7784;DHT22;19359;51.402;6.778;2023-12-20T09:39:31;6.90;1.00
7784;DHT22;19359;51.402;6.778;2023-12-20T09:42:01;6.90;1.00
7784;DHT22;19359;51.402;6.778;2023-12-20T09:44:28;6.80;1.00
7784;DHT22;19359;51.402;6.778;2023-12-20T09:46:56;6.90;1.00
7784;DHT22;19359;51.402;6.778;2023-12-20T09:49:25;6.90;1.00
7784;DHT22;19359;51.402;6.778;2023-12-20T09:51:57;6.90;1.00
7784;DHT22;19359;51.402;6.778;2023-12-20T09:54:25;7.00;1.00
7784;DHT22;19359;51.402;6.778;2023-12-20T09:56:53;7.00;1.00
7784;DHT22;19359;51.402;6.778;2023-12-20T09:59:20;6.90;1.00
7784;DHT22;19359;51.402;6.778;2023-12-20T10:01:48;7.00;1.00
7784;DHT22;19359;51.402;6.778;2023-12-20T10:04:15;6.90;1.00
7784;DHT22;19359;51.402;6.778;2023-12-20T10:06:44;7.00;1.00
7784;DHT22;19359;51.402;6.778;2023-12-20T10:09:12;7.00;1.00
7784;DHT22;19359;51.402;6.778;2023-12-20T10:14:06;7.00;1.00
7784;DHT22;19359;51.402;6.778;2023-12-20T10:16:34;7.00;1.00
7784;DHT22;19359;51.402;6.778;2023-12-20T10:19:01;7.20;1.00
7784;DHT22;19359;51.402;6.778;2023-12-20T10:21:28;7.10;99.90
7784;DHT22;19359;51.402;6.778;2023-12-20T10:23:58;7.10;1.00
7784;DHT22;19359;51.402;6.778;2023-12-20T10:26:26;6.80;1.00
7784;DHT22;19359;51.402;6.778;2023-12-20T10:28:54;7.20;99.90
7784;DHT22;19359;51.402;6.778;2023-12-20T10:31:28;7.00;99.90
7784;DHT22;19359;51.402;6.778;2023-12-20T10:36:24;7.40;99.90
7784;DHT22;19359;51.402;6.778;2023-12-20T10:38:52;7.20;99.90
7784;DHT22;19359;51.402;6.778;2023-12-20T10:41:25;7.20;99.90
7784;DHT22;19359;51.402;6.778;2023-12-20T10:43:54;7.20;1.00
7784;DHT22;19359;51.402;6.778;2023-12-20T10:46:21;7.20;99.90
7784;DHT22;19359;51.402;6.778;2023-12-20T10:48:50;7.20;99.90
7784;DHT22;19359;51.402;6.778;2023-12-20T10:51:18;6.90;99.90
7784;DHT22;19359;51.402;6.778;2023-12-20T10:53:47;7.40;1.00
7784;DHT22;19359;51.402;6.778;2023-12-20T10:56:16;7.20;1.00
7784;DHT22;19359;51.402;6.778;2023-12-20T10:58:45;7.20;99.90
7784;DHT22;19359;51.402;6.778;2023-12-20T11:01:13;7.20;1.00
7784;DHT22;19359;51.402;6.778;2023-12-20T11:03:44;7.20;1.00
7784;DHT22;19359;51.402;6.778;2023-12-20T11:06:25;7.30;1.00
7784;DHT22;19359;51.402;6.778;2023-12-20T11:08:58;7.30;1.00
7784;DHT22;19359;51.402;6.778;2023-12-20T11:11:37;7.30;99.90
7784;DHT22;19359;51.402;6.778;2023-12-20T11:14:08;7.30;1.00
7784;DHT22;19359;51.402;6.778;2023-12-20T11:16:41;7.40;1.00
7784;DHT22;19359;51.402;6.778;2023-12-20T11:19:08;7.20;1.00
7784;DHT22;19359;51.402;6.778;2023-12-20T11:24:03;7.40;1.00
7784;DHT22;19359;51.402;6.778;2023-12-20T11:26:30;7.50;1.00
7784;DHT22;19359;51.402;6.778;2023-12-20T11:29:30;7.50;99.90
7784;DHT22;19359;51.402;6.778;2023-12-20T11:31:58;7.50;99.90
7784;DHT22;19359;51.402;6.778;2023-12-20T11:34:27;7.50;46.50
7784;DHT22;19359;51.402;6.778;2023-12-20T11:36:58;7.60;99.90
7784;DHT22;19359;51.402;6.778;2023-12-20T11:39:26;7.70;99.90
7784;DHT22;19359;51.402;6.778;2023-12-20T11:41:55;7.50;59.90
7784;DHT22;19359;51.402;6.778;2023-12-20T11:44:25;7.90;1.00
7784;DHT22;19359;51.402;6.778;2023-12-20T11:46:52;7.60;1.00
7784;DHT22;19359;51.402;6.778;2023-12-20T11:49:23;7.60;1.00
7784;DHT22;19359;51.402;6.778;2023-12-20T11:51:50;7.30;84.00
7784;DHT22;19359;51.402;6.778;2023-12-20T11:54:18;7.50;1.00
7784;DHT22;19359;51.402;6.778;2023-12-20T11:56:45;7.40;1.00
7784;DHT22;19359;51.402;6.778;2023-12-20T11:59:12;7.40;1.00
7784;DHT22;19359;51.402;6.778;2023-12-20T12:01:40;7.30;1.00
7784;DHT22;19359;51.402;6.778;2023-12-20T12:04:14;7.40;1.00
7784;DHT22;19359;51.402;6.778;2023-12-20T12:06:43;7.20;99.90
7784;DHT22;19359;51.402;6.778;2023-12-20T12:09:09;7.30;99.90
7784;DHT22;19359;51.402;6.778;2023-12-20T12:11:36;7.40;99.90
7784;DHT22;19359;51.402;6.778;2023-12-20T12:14:03;7.30;99.90
7784;DHT22;19359;51.402;6.778;2023-12-20T12:18:59;7.40;1.00
7784;DHT22;19359;51.402;6.778;2023-12-20T12:23:53;7.40;1.00
7784;DHT22;19359;51.402;6.778;2023-12-20T12:26:20;7.40;1.00
7784;DHT22;19359;51.402;6.778;2023-12-20T12:28:47;7.40;1.00
7784;DHT22;19359;51.402;6.778;2023-12-20T12:31:14;7.40;99.90
7784;DHT22;19359;51.402;6.778;2023-12-20T12:36:12;7.50;1.00
7784;DHT22;19359;51.402;6.778;2023-12-20T12:38:41;7.50;99.90
7784;DHT22;19359;51.402;6.778;2023-12-20T12:41:08;7.50;6.90
7784;DHT22;19359;51.402;6.778;2023-12-20T12:43:36;7.50;91.90
7784;DHT22;19359;51.402;6.778;2023-12-20T12:46:03;7.50;1.00
7784;DHT22;19359;51.402;6.778;2023-12-20T12:48:30;7.60;99.90
7784;DHT22;19359;51.402;6.778;2023-12-20T12:50:56;7.50;99.90
7784;DHT22;19359;51.402;6.778;2023-12-20T12:53:26;7.40;99.90
7784;DHT22;19359;51.402;6.778;2023-12-20T12:55:53;7.50;99.90
7784;DHT22;19359;51.402;6.778;2023-12-20T12:58:20;7.40;99.90
7784;DHT22;19359;51.402;6.778;2023-12-20T13:00:47;7.40;1.00
7784;DHT22;19359;51.402;6.778;2023-12-20T13:03:17;7.40;99.90
7784;DHT22;19359;51.402;6.778;2023-12-20T13:05:43;7.40;1.00
7784;DHT22;19359;51.402;6.778;2023-12-20T13:08:10;7.30;1.00
7784;DHT22;19359;51.402;6.778;2023-12-20T13:10:39;7.30;1.00
7784;DHT22;19359;51.402;6.778;2023-12-20T13:13:08;7.30;99.90
7784;DHT22;19359;51.402;6.778;2023-12-20T13:15:35;7.30;1.00
7784;DHT22;19359;51.402;6.778;2023-12-20T13:18:02;7.20;1.00
7784;DHT22;19359;51.402;6.778;2023-12-20T13:20:30;7.20;1.00
7784;DHT22;19359;51.402;6.778;2023-12-20T13:22:57;7.00;1.00
7784;DHT22;19359;51.402;6.778;2023-12-20T13:25:23;7.10;1.00
7784;DHT22;19359;51.402;6.778;2023-12-20T13:27:52;7.00;66.50
7784;DHT22;19359;51.402;6.778;2023-12-20T13:30:20;7.00;72.90
7784;DHT22;19359;51.402;6.778;2023-12-20T13:32:47;7.20;99.90
7784;DHT22;19359;51.402;6.778;2023-12-20T13:35:14;6.90;99.90
7784;DHT22;19359;51.402;6.778;2023-12-20T13:37:41;6.80;99.90
7784;DHT22;19359;51.402;6.778;2023-12-20T13:40:10;6.90;99.90
7784;DHT22;19359;51.402;6.778;2023-12-20T13:42:37;6.90;99.90
7784;DHT22;19359;51.402;6.778;2023-12-20T13:45:07;7.00;99.90
7784;DHT22;19359;51.402;6.778;2023-12-20T13:47:34;6.90;99.90
7784;DHT22;19359;51.402;6.778;2023-12-20T13:50:02;6.90;99.90
7784;DHT22;19359;51.402;6.778;2023-12-20T13:54:56;6.90;99.90
7784;DHT22;19359;51.402;6.778;2023-12-20T13:59:50;6.90;99.90
7784;DHT22;19359;51.402;6.778;2023-12-20T14:02:18;6.90;99.90
7784;DHT22;19359;51.402;6.778;2023-12-20T14:04:45;6.80;99.90
7784;DHT22;19359;51.402;6.778;2023-12-20T14:07:12;6.90;99.90
7784;DHT22;19359;51.402;6.778;2023-12-20T14:09:39;6.90;99.90
7784;DHT22;19359;51.402;6.778;2023-12-20T14:12:10;6.90;99.90
7784;DHT22;19359;51.402;6.778;2023-12-20T14:14:37;6.90;99.90
7784;DHT22;19359;51.402;6.778;2023-12-20T14:17:04;6.90;99.90
7784;DHT22;19359;51.402;6.778;2023-12-20T14:19:33;7.00;99.90
7784;DHT22;19359;51.402;6.778;2023-12-20T14:22:00;7.10;99.90
7784;DHT22;19359;51.402;6.778;2023-12-20T14:24:30;6.90;99.90
7784;DHT22;19359;51.402;6.778;2023-12-20T14:26:58;7.10;99.90
7784;DHT22;19359;51.402;6.778;2023-12-20T14:29:24;7.00;99.90
7784;DHT22;19359;51.402;6.778;2023-12-20T14:31:52;7.00;99.90
7784;DHT22;19359;51.402;6.778;2023-12-20T14:34:19;7.10;99.90
7784;DHT22;19359;51.402;6.778;2023-12-20T14:36:47;7.60;99.90
7784;DHT22;19359;51.402;6.778;2023-12-20T14:39:14;7.10;99.90
7784;DHT22;19359;51.402;6.778;2023-12-20T14:41:43;7.10;99.90
7784;DHT22;19359;51.402;6.778;2023-12-20T14:44:10;7.20;56.90
7784;DHT22;19359;51.402;6.778;2023-12-20T14:46:37;7.20;71.60
7784;DHT22;19359;51.402;6.778;2023-12-20T14:49:05;7.20;70.50
7784;DHT22;19359;51.402;6.778;2023-12-20T14:51:31;7.20;45.80
7784;DHT22;19359;51.402;6.778;2023-12-20T14:54:00;7.20;86.00
7784;DHT22;19359;51.402;6.778;2023-12-20T14:56:27;7.30;18.20
7784;DHT22;19359;51.402;6.778;2023-12-20T14:58:54;8.20;16.50
7784;DHT22;19359;51.402;6.778;2023-12-20T15:01:21;7.30;1.00
7784;DHT22;19359;51.402;6.778;2023-12-20T15:03:48;7.30;1.00
7784;DHT22;19359;51.402;6.778;2023-12-20T15:08:42;7.30;25.40
7784;DHT22;19359;51.402;6.778;2023-12-20T15:11:11;7.40;1.00
7784;DHT22;19359;51.402;6.778;2023-12-20T15:13:41;7.50;1.00
7784;DHT22;19359;51.402;6.778;2023-12-20T15:16:07;7.40;1.00
7784;DHT22;19359;51.402;6.778;2023-12-20T15:18:34;7.40;1.00
7784;DHT22;19359;51.402;6.778;2023-12-20T15:21:01;7.70;1.00
7784;DHT22;19359;51.402;6.778;2023-12-20T15:23:28;7.40;1.00
7784;DHT22;19359;51.402;6.778;2023-12-20T15:25:56;8.20;1.00
7784;DHT22;19359;51.402;6.778;2023-12-20T15:28:27;7.50;1.00
7784;DHT22;19359;51.402;6.778;2023-12-20T15:30:54;7.50;1.00
7784;DHT22;19359;51.402;6.778;2023-12-20T15:33:22;7.40;1.00
7784;DHT22;19359;51.402;6.778;2023-12-20T15:35:48;7.40;1.00
7784;DHT22;19359;51.402;6.778;2023-12-20T15:38:15;7.40;1.00
7784;DHT22;19359;51.402;6.778;2023-12-20T15:40:42;7.40;1.00
7784;DHT22;19359;51.402;6.778;2023-12-20T15:43:09;7.40;1.00
7784;DHT22;19359;51.402;6.778;2023-12-20T15:45:37;7.40;1.00
7784;DHT22;19359;51.402;6.778;2023-12-20T15:48:05;7.50;1.00
7784;DHT22;19359;51.402;6.778;2023-12-20T15:50:32;7.50;1.00
7784;DHT22;19359;51.402;6.778;2023-12-20T15:52:59;7.60;1.00
7784;DHT22;19359;51.402;6.778;2023-12-20T15:55:26;7.50;1.00
7784;DHT22;19359;51.402;6.778;2023-12-20T15:57:53;7.70;1.00
7784;DHT22;19359;51.402;6.778;2023-12-20T16:00:20;7.50;1.00
7784;DHT22;19359;51.402;6.778;2023-12-20T16:02:48;7.70;1.00
7784;DHT22;19359;51.402;6.778;2023-12-20T16:05:15;7.60;1.00
7784;DHT22;19359;51.402;6.778;2023-12-20T16:07:41;7.60;1.00
7784;DHT22;19359;51.402;6.778;2023-12-20T16:10:09;7.60;1.00
7784;DHT22;19359;51.402;6.778;2023-12-20T16:12:36;7.30;1.00
7784;DHT22;19359;51.402;6.778;2023-12-20T16:15:03;7.60;1.00
7784;DHT22;19359;51.402;6.778;2023-12-20T16:17:30;7.60;1.00
7784;DHT22;19359;51.402;6.778;2023-12-20T16:20:00;7.50;1.00
7784;DHT22;19359;51.402;6.778;2023-12-20T16:22:27;7.60;1.00
7784;DHT22;19359;51.402;6.778;2023-12-20T16:24:54;7.80;1.00
7784;DHT22;19359;51.402;6.778;2023-12-20T16:27:20;7.50;1.00
7784;DHT22;19359;51.402;6.778;2023-12-20T16:29:47;7.60;1.00
7784;DHT22;19359;51.402;6.778;2023-12-20T16:32:17;7.60;1.00
7784;DHT22;19359;51.402;6.778;2023-12-20T16:34:44;7.70;1.00
7784;DHT22;19359;51.402;6.778;2023-12-20T16:37:12;7.60;1.00
7784;DHT22;19359;51.402;6.778;2023-12-20T16:42:06;7.60;1.00
7784;DHT22;19359;51.402;6.778;2023-12-20T16:44:33;7.60;99.90
7784;DHT22;19359;51.402;6.778;2023-12-20T16:47:00;7.60;1.00
7784;DHT22;19359;51.402;6.778;2023-12-20T16:49:27;8.10;1.00
7784;DHT22;19359;51.402;6.778;2023-12-20T16:51:53;7.60;1.00
7784;DHT22;19359;51.402;6.778;2023-12-20T16:54:21;7.60;1.00
7784;DHT22;19359;51.402;6.778;2023-12-20T16:56:48;7.70;1.00
7784;DHT22;19359;51.402;6.778;2023-12-20T16:59:15;7.60;1.00
7784;DHT22;19359;51.402;6.778;2023-12-20T17:01:42;7.70;1.00
7784;DHT22;19359;51.402;6.778;2023-12-20T17:04:11;7.60;1.00
7784;DHT22;19359;51.402;6.778;2023-12-20T17:06:37;7.60;1.00
7784;DHT22;19359;51.402;6.778;2023-12-20T17:09:05;7.60;1.00
7784;DHT22;19359;51.402;6.778;2023-12-20T17:11:34;7.70;1.00
7784;DHT22;19359;51.402;6.778;2023-12-20T17:14:01;7.70;1.00
7784;DHT22;19359;51.402;6.778;2023-12-20T17:16:28;8.40;1.00